createdAt,value
2023-08-06T00:45:39.522Z,64.44
2023-08-06T06:31:45.659Z,62.75
2023-08-06T06:34:12.347Z,62.32
2023-08-06T06:39:25.558Z,60.60
2023-08-06T06:41:52.706Z,60.13
2023-08-06T06:44:26.146Z,59.42
2023-08-06T06:49:35.419Z,59.72
2023-08-06T06:52:01.970Z,59.80
2023-08-06T06:54:36.605Z,59.75
2023-08-06T06:57:03.554Z,59.92
2023-08-06T06:59:30.172Z,60.08
2023-08-06T07:04:47.708Z,60.38
2023-08-06T07:09:58.084Z,60.29
2023-08-06T07:12:25.077Z,60.61
2023-08-06T07:14:51.840Z,61.07
2023-08-06T07:17:20.930Z,61.59
2023-08-06T07:19:51.205Z,62.08
2023-08-06T07:22:18.546Z,62.51
2023-08-06T07:27:26.138Z,62.82
2023-08-06T07:32:36.789Z,63.06
2023-08-06T07:35:05.772Z,62.86
2023-08-06T07:40:14.909Z,62.96
2023-08-06T07:42:43.813Z,62.97
2023-08-06T07:45:10.899Z,62.39
2023-08-06T07:47:44.150Z,62.53
2023-08-06T07:50:15.198Z,62.71
2023-08-06T07:52:42.082Z,61.85
2023-08-06T08:03:30.769Z,62.07
2023-08-06T08:05:58.997Z,61.89
2023-08-06T08:08:26.511Z,61.79
2023-08-06T08:11:01.189Z,61.74
2023-08-06T08:13:28.914Z,60.72
2023-08-06T08:15:58.110Z,60.70
2023-08-06T08:18:24.815Z,61.11
2023-08-06T08:23:37.369Z,60.26
2023-08-06T08:26:08.865Z,58.92
2023-08-06T08:28:35.738Z,59.31
2023-08-06T08:31:03.664Z,59.10
2023-08-06T08:33:30.366Z,59.13
2023-08-06T08:35:57.144Z,59.44
2023-08-06T08:38:24.040Z,58.35
2023-08-06T08:40:53.417Z,58.21
2023-08-06T08:46:03.092Z,57.99
2023-08-06T08:48:34.010Z,57.65
2023-08-06T08:51:00.898Z,56.49
2023-08-06T08:53:28.007Z,56.56
2023-08-06T08:55:56.361Z,56.87
2023-08-06T08:58:22.952Z,55.46
2023-08-06T09:00:49.914Z,56.36
2023-08-06T09:03:17.903Z,56.48
2023-08-06T09:05:45.201Z,56.84
2023-08-06T09:08:12.861Z,56.49
2023-08-06T09:10:40.189Z,55.17
2023-08-06T09:13:09.757Z,54.97
2023-08-06T09:15:36.337Z,55.48
2023-08-06T09:18:09.937Z,54.95
2023-08-06T09:20:36.453Z,55.42
2023-08-06T09:23:07.882Z,55.84
2023-08-06T09:25:34.441Z,55.56
2023-08-06T09:28:00.977Z,55.38
2023-08-06T09:30:32.851Z,55.76
2023-08-06T09:32:59.466Z,55.50
2023-08-06T09:35:28.977Z,54.00
2023-08-06T09:37:55.582Z,55.35
2023-08-06T09:40:25.973Z,55.48
2023-08-06T09:42:52.523Z,56.08
2023-08-06T09:45:19.020Z,56.35
2023-08-06T09:47:46.964Z,56.82
2023-08-06T09:50:16.091Z,57.16
2023-08-06T09:52:43.226Z,57.13
2023-08-06T09:55:11.632Z,56.98
2023-08-06T09:57:38.417Z,57.46
2023-08-06T10:00:06.145Z,57.46
2023-08-06T10:02:40.501Z,57.62
2023-08-06T10:05:09.167Z,57.92
2023-08-06T10:07:36.096Z,58.41
2023-08-06T10:10:03.683Z,58.60
2023-08-06T10:12:33.216Z,58.79
2023-08-06T10:15:02.561Z,58.81
2023-08-06T10:17:41.050Z,58.66
2023-08-06T10:20:17.429Z,58.84
2023-08-06T10:22:45.365Z,59.05
2023-08-06T10:25:11.966Z,58.97
2023-08-06T10:27:41.031Z,59.41
2023-08-06T10:30:26.285Z,59.72
2023-08-06T10:32:53.536Z,59.63
2023-08-06T10:35:31.583Z,59.83
2023-08-06T10:38:04.345Z,59.26
2023-08-06T10:40:32.093Z,59.57
2023-08-06T10:42:59.656Z,59.56
2023-08-06T10:45:29.667Z,59.92
2023-08-06T10:47:57.947Z,60.15
2023-08-06T10:50:25.213Z,60.27
2023-08-06T10:52:53.258Z,60.26
2023-08-06T10:55:23.469Z,60.26
2023-08-06T10:57:50.037Z,60.31
2023-08-06T11:00:17.421Z,60.53
2023-08-06T11:02:45.494Z,60.37
2023-08-06T11:05:12.502Z,60.95
2023-08-06T11:07:39.733Z,61.16
2023-08-06T11:10:08.894Z,61.37
2023-08-06T11:12:35.880Z,61.64
2023-08-06T11:15:03.337Z,61.91
2023-08-06T11:17:30.647Z,61.91
2023-08-06T11:19:59.876Z,62.32
2023-08-06T11:22:26.522Z,61.81
2023-08-06T11:24:53.933Z,61.75
2023-08-06T11:27:21.942Z,61.94
2023-08-06T11:29:48.515Z,61.68
2023-08-06T11:32:17.638Z,61.51
2023-08-06T11:34:44.720Z,61.88
2023-08-06T11:37:11.740Z,61.69
2023-08-06T11:39:39.697Z,61.75
2023-08-06T11:42:06.995Z,61.81
2023-08-06T11:44:36.152Z,61.65
2023-08-06T11:47:03.863Z,61.70
2023-08-06T11:49:41.266Z,61.67
2023-08-06T11:52:09.594Z,60.82
2023-08-06T11:54:38.115Z,59.62
2023-08-06T11:57:06.135Z,60.67
2023-08-06T11:59:32.726Z,61.00
2023-08-06T12:02:00.952Z,60.92
2023-08-06T12:04:27.561Z,60.21
2023-08-06T12:06:54.459Z,60.22
2023-08-06T12:09:21.933Z,60.30
2023-08-06T12:11:48.510Z,59.67
2023-08-06T12:14:15.153Z,59.39
2023-08-06T12:16:41.740Z,59.43
2023-08-06T12:19:09.682Z,59.33
2023-08-06T12:21:36.549Z,59.24
2023-08-06T12:24:18.466Z,57.93
2023-08-06T12:29:26.439Z,58.80
2023-08-06T12:32:04.829Z,57.92
2023-08-06T12:34:53.178Z,57.76
2023-08-06T12:37:25.290Z,57.06
2023-08-06T12:39:51.891Z,56.64
2023-08-06T12:42:19.428Z,56.63
2023-08-06T12:44:51.454Z,55.97
2023-08-06T12:47:18.629Z,55.36
2023-08-06T12:49:45.309Z,55.83
2023-08-06T12:52:13.782Z,55.44
2023-08-06T12:54:47.316Z,55.81
2023-08-06T12:57:14.079Z,56.41
2023-08-06T12:59:44.835Z,56.55
2023-08-06T13:02:11.419Z,56.05
2023-08-06T13:04:38.898Z,56.69
2023-08-06T13:09:51.248Z,57.55
2023-08-06T13:12:21.835Z,58.28
2023-08-06T13:14:48.587Z,58.00
2023-08-06T13:17:15.665Z,58.62
2023-08-06T13:19:42.341Z,58.78
2023-08-06T13:22:10.493Z,59.13
2023-08-06T13:24:37.523Z,59.34
2023-08-06T13:30:04.227Z,60.50
2023-08-06T13:37:52.484Z,61.23
2023-08-06T13:40:26.808Z,61.26
2023-08-06T13:45:39.417Z,60.37
2023-08-06T13:48:07.027Z,60.37
2023-08-06T13:50:34.017Z,59.96
2023-08-06T13:58:29.277Z,59.68
2023-08-06T14:00:58.919Z,58.26
2023-08-06T14:03:26.444Z,59.09
2023-08-06T14:05:54.042Z,59.35
2023-08-06T14:08:26.097Z,59.29
2023-08-06T14:11:11.012Z,59.11
2023-08-06T14:13:37.771Z,59.07
2023-08-06T14:21:39.540Z,58.99
2023-08-06T14:26:47.837Z,59.27
2023-08-06T14:32:00.957Z,58.62
2023-08-06T14:34:29.134Z,58.50
2023-08-06T14:36:56.444Z,58.51
2023-08-06T14:44:47.307Z,58.42
2023-08-06T14:47:19.640Z,58.30
2023-08-06T14:52:27.645Z,58.78
2023-08-06T14:57:37.830Z,59.65
2023-08-06T15:00:06.386Z,59.93
2023-08-06T15:05:30.757Z,60.08
2023-08-06T15:07:58.074Z,60.03
2023-08-06T15:10:28.066Z,60.34
2023-08-06T15:15:37.945Z,59.87
2023-08-06T15:27:49.365Z,60.23
2023-08-06T15:30:24.506Z,60.17
2023-08-06T15:32:51.912Z,60.13
2023-08-06T15:46:46.755Z,60.42
2023-08-06T15:49:13.327Z,60.71
2023-08-06T15:54:32.164Z,60.61
2023-08-06T15:57:00.623Z,61.03
2023-08-06T15:59:30.031Z,60.86
2023-08-06T16:02:01.149Z,60.82
2023-08-06T16:04:28.217Z,60.67
2023-08-06T16:09:35.391Z,60.85
2023-08-06T16:12:11.176Z,60.79
2023-08-06T16:17:33.928Z,60.25
2023-08-06T16:20:15.469Z,59.80
2023-08-06T16:22:43.444Z,59.99
2023-08-06T16:25:21.296Z,59.82
2023-08-06T16:27:56.010Z,60.15
2023-08-06T16:33:13.864Z,60.39
2023-08-06T16:38:38.336Z,60.89
2023-08-06T16:41:07.796Z,60.80
2023-08-06T16:43:34.425Z,61.36
2023-08-06T16:46:01.065Z,61.29
2023-08-06T16:48:28.231Z,61.51
2023-08-06T16:50:56.769Z,61.56
2023-08-06T16:53:25.409Z,61.97
2023-08-06T16:58:53.193Z,62.75
2023-08-06T17:37:34.622Z,63.01
2023-08-06T17:40:01.335Z,63.21
2023-08-06T17:42:28.078Z,63.63
2023-08-06T17:44:54.804Z,63.65
2023-08-06T17:47:35.780Z,63.27
2023-08-06T17:50:04.591Z,63.43
2023-08-06T17:52:32.119Z,63.85
2023-08-06T17:55:00.669Z,63.73
2023-08-06T17:57:27.231Z,63.42
2023-08-06T17:59:53.872Z,63.68
2023-08-06T18:02:20.617Z,63.76
2023-08-06T18:04:48.097Z,64.40
2023-08-06T18:07:14.731Z,64.09
2023-08-06T18:09:41.533Z,64.46
2023-08-06T18:12:10.925Z,64.85
2023-08-06T19:21:18.875Z,65.02
2023-08-06T19:23:46.337Z,65.00
2023-08-06T19:26:24.572Z,65.24
2023-08-06T19:49:50.634Z,66.07
2023-08-06T20:54:57.779Z,65.14
2023-08-06T21:00:05.844Z,65.60
2023-08-06T21:19:56.966Z,65.73
2023-08-06T21:22:23.974Z,65.27
2023-08-06T21:32:54.968Z,65.88
2023-08-06T22:31:56.747Z,65.52
2023-08-06T22:34:23.748Z,65.21
2023-08-06T22:36:50.488Z,65.28
2023-08-06T22:39:17.157Z,65.22
2023-08-06T22:41:43.751Z,65.34
2023-08-06T22:44:10.368Z,65.67
2023-08-06T22:46:36.934Z,65.66
2023-08-06T22:49:05.465Z,65.25
2023-08-06T22:51:32.376Z,64.89
2023-08-06T22:53:59.114Z,65.57
2023-08-06T22:56:25.785Z,65.53
2023-08-06T22:58:52.394Z,66.00
2023-08-06T23:01:19.098Z,66.04
2023-08-06T23:03:45.764Z,65.79
2023-08-06T23:06:14.005Z,65.90
2023-08-06T23:08:40.810Z,65.90
2023-08-06T23:11:09.162Z,65.51
2023-08-06T23:13:36.172Z,66.18
2023-08-06T23:16:02.885Z,65.83
2023-08-06T23:18:29.532Z,65.74
2023-08-06T23:20:56.117Z,65.84
2023-08-06T23:23:24.412Z,66.34
2023-08-06T23:25:50.963Z,66.46
2023-08-06T23:28:17.605Z,66.85
2023-08-06T23:30:48.075Z,66.47
2023-08-06T23:33:14.629Z,66.49
2023-08-06T23:35:41.473Z,66.95
2023-08-06T23:38:08.131Z,66.84
2023-08-06T23:40:36.441Z,67.40
2023-08-06T23:43:03.170Z,67.07
2023-08-06T23:45:30.108Z,67.11
2023-08-06T23:47:56.733Z,66.33
2023-08-06T23:50:23.595Z,66.35
2023-08-06T23:52:53.948Z,66.97
2023-08-06T23:55:20.566Z,66.28
2023-08-06T23:57:49.612Z,67.10
